sensor_id;sensor_type;location;lat;lon;timestamp;pressure;altitude;pressure_sealevel;temperature;humidity
19884;BME280;10104;50.732;10.174;2023-04-28T00:01:00;97829.13;;;10.26;66.46
19884;BME280;10104;50.732;10.174;2023-04-28T00:03:22;97826.63;;;10.03;67.99
19884;BME280;10104;50.732;10.174;2023-04-28T00:05:44;97824.13;;;10.16;65.94
19884;BME280;10104;50.732;10.174;2023-04-28T00:08:05;97824.31;;;10.29;64.52
19884;BME280;10104;50.732;10.174;2023-04-28T00:10:27;97812.16;;;10.35;63.83
19884;BME280;10104;50.732;10.174;2023-04-28T00:12:49;97809.56;;;10.41;63.11
19884;BME280;10104;50.732;10.174;2023-04-28T00:15:10;97807.50;;;10.37;63.84
19884;BME280;10104;50.732;10.174;2023-04-28T00:17:33;97806.09;;;10.41;63.27
19884;BME280;10104;50.732;10.174;2023-04-28T00:19:55;97809.94;;;10.38;63.39
19884;BME280;10104;50.732;10.174;2023-04-28T00:22:16;97800.56;;;10.36;63.62
19884;BME280;10104;50.732;10.174;2023-04-28T00:24:38;97802.56;;;10.34;63.96
19884;BME280;10104;50.732;10.174;2023-04-28T00:27:02;97808.28;;;10.37;64.41
19884;BME280;10104;50.732;10.174;2023-04-28T00:29:23;97795.44;;;10.34;63.75
19884;BME280;10104;50.732;10.174;2023-04-28T00:31:45;97802.56;;;10.34;64.28
19884;BME280;10104;50.732;10.174;2023-04-28T00:34:06;97797.59;;;10.45;63.89
19884;BME280;10104;50.732;10.174;2023-04-28T00:36:28;97793.28;;;10.44;63.24
19884;BME280;10104;50.732;10.174;2023-04-28T00:38:52;97794.03;;;10.38;63.58
19884;BME280;10104;50.732;10.174;2023-04-28T00:41:13;97785.16;;;10.25;64.50
19884;BME280;10104;50.732;10.174;2023-04-28T00:43:49;97793.38;;;10.30;63.96
19884;BME280;10104;50.732;10.174;2023-04-28T00:46:24;97797.84;;;10.14;67.11
19884;BME280;10104;50.732;10.174;2023-04-28T00:48:48;97787.44;;;10.28;65.85
19884;BME280;10104;50.732;10.174;2023-04-28T00:51:10;97781.97;;;10.29;65.00
19884;BME280;10104;50.732;10.174;2023-04-28T00:53:32;97782.97;;;10.28;65.64
19884;BME280;10104;50.732;10.174;2023-04-28T00:55:54;97775.47;;;10.32;65.70
19884;BME280;10104;50.732;10.174;2023-04-28T00:58:18;97771.88;;;10.39;64.89
19884;BME280;10104;50.732;10.174;2023-04-28T01:00:39;97763.44;;;10.29;66.41
19884;BME280;10104;50.732;10.174;2023-04-28T01:03:01;97765.38;;;10.21;68.20
19884;BME280;10104;50.732;10.174;2023-04-28T01:05:27;97762.81;;;10.12;68.66
19884;BME280;10104;50.732;10.174;2023-04-28T01:07:49;97756.25;;;10.23;67.28
19884;BME280;10104;50.732;10.174;2023-04-28T01:10:11;97754.84;;;10.27;66.42
19884;BME280;10104;50.732;10.174;2023-04-28T01:12:32;97757.16;;;10.30;65.82
19884;BME280;10104;50.732;10.174;2023-04-28T01:14:54;97753.53;;;10.38;65.63
19884;BME280;10104;50.732;10.174;2023-04-28T01:17:16;97742.38;;;10.42;65.13
19884;BME280;10104;50.732;10.174;2023-04-28T01:19:37;97748.28;;;10.44;64.48
19884;BME280;10104;50.732;10.174;2023-04-28T01:21:59;97749.63;;;10.34;66.25
19884;BME280;10104;50.732;10.174;2023-04-28T01:24:20;97747.28;;;10.45;65.04
19884;BME280;10104;50.732;10.174;2023-04-28T01:26:42;97741.56;;;10.42;66.20
19884;BME280;10104;50.732;10.174;2023-04-28T01:29:04;97747.28;;;10.45;65.79
19884;BME280;10104;50.732;10.174;2023-04-28T01:31:26;97735.88;;;10.45;66.12
19884;BME280;10104;50.732;10.174;2023-04-28T01:33:48;97736.13;;;10.50;65.36
19884;BME280;10104;50.732;10.174;2023-04-28T01:36:09;97727.16;;;10.51;65.21
19884;BME280;10104;50.732;10.174;2023-04-28T01:38:31;97728.03;;;10.30;67.35
19884;BME280;10104;50.732;10.174;2023-04-28T01:40:53;97722.22;;;10.20;69.87
19884;BME280;10104;50.732;10.174;2023-04-28T01:43:15;97727.00;;;10.31;68.31
19884;BME280;10104;50.732;10.174;2023-04-28T01:45:37;97724.16;;;10.33;67.70
19884;BME280;10104;50.732;10.174;2023-04-28T01:47:58;97718.09;;;10.39;67.05
19884;BME280;10104;50.732;10.174;2023-04-28T01:50:20;97717.53;;;10.43;66.73
19884;BME280;10104;50.732;10.174;2023-04-28T01:52:41;97715.38;;;10.53;66.81
19884;BME280;10104;50.732;10.174;2023-04-28T01:55:03;97706.81;;;10.51;66.20
19884;BME280;10104;50.732;10.174;2023-04-28T01:57:25;97704.63;;;10.55;65.67
19884;BME280;10104;50.732;10.174;2023-04-28T01:59:46;97708.06;;;10.55;65.18
19884;BME280;10104;50.732;10.174;2023-04-28T02:02:08;97701.09;;;10.48;65.84
19884;BME280;10104;50.732;10.174;2023-04-28T02:04:29;97712.22;;;10.37;68.00
19884;BME280;10104;50.732;10.174;2023-04-28T02:06:51;97710.63;;;10.42;67.44
19884;BME280;10104;50.732;10.174;2023-04-28T02:09:13;97711.88;;;10.46;67.38
19884;BME280;10104;50.732;10.174;2023-04-28T02:11:34;97707.81;;;10.50;66.52
19884;BME280;10104;50.732;10.174;2023-04-28T02:13:56;97705.34;;;10.42;67.75
19884;BME280;10104;50.732;10.174;2023-04-28T02:16:17;97709.09;;;10.54;66.66
19884;BME280;10104;50.732;10.174;2023-04-28T02:18:39;97704.81;;;10.53;66.69
19884;BME280;10104;50.732;10.174;2023-04-28T02:21:08;97710.47;;;10.50;66.75
19884;BME280;10104;50.732;10.174;2023-04-28T02:23:31;97709.09;;;10.54;67.24
19884;BME280;10104;50.732;10.174;2023-04-28T02:25:59;97701.75;;;10.57;66.65
19884;BME280;10104;50.732;10.174;2023-04-28T02:28:21;97703.03;;;10.61;66.30
19884;BME280;10104;50.732;10.174;2023-04-28T02:30:43;97702.63;;;10.64;66.41
19884;BME280;10104;50.732;10.174;2023-04-28T02:33:04;97702.69;;;10.70;66.04
19884;BME280;10104;50.732;10.174;2023-04-28T02:35:26;97707.59;;;10.73;65.52
19884;BME280;10104;50.732;10.174;2023-04-28T02:37:47;97702.91;;;10.75;65.11
19884;BME280;10104;50.732;10.174;2023-04-28T02:40:09;97693.78;;;10.78;64.67
19884;BME280;10104;50.732;10.174;2023-04-28T02:42:31;97690.47;;;10.76;65.02
19884;BME280;10104;50.732;10.174;2023-04-28T02:44:52;97685.19;;;10.76;64.85
19884;BME280;10104;50.732;10.174;2023-04-28T02:47:14;97683.09;;;10.65;65.25
19884;BME280;10104;50.732;10.174;2023-04-28T02:49:35;97676.59;;;10.67;66.33
19884;BME280;10104;50.732;10.174;2023-04-28T02:51:57;97678.03;;;10.70;66.69
19884;BME280;10104;50.732;10.174;2023-04-28T02:54:18;97671.91;;;10.69;66.78
19884;BME280;10104;50.732;10.174;2023-04-28T02:56:47;97669.28;;;10.76;66.06
19884;BME280;10104;50.732;10.174;2023-04-28T02:59:09;97662.00;;;10.78;66.05
19884;BME280;10104;50.732;10.174;2023-04-28T03:01:30;97661.09;;;10.64;66.85
19884;BME280;10104;50.732;10.174;2023-04-28T03:03:52;97658.00;;;10.61;67.48
19884;BME280;10104;50.732;10.174;2023-04-28T03:06:14;97661.09;;;10.64;67.88
19884;BME280;10104;50.732;10.174;2023-04-28T03:08:35;97662.53;;;10.67;66.88
19884;BME280;10104;50.732;10.174;2023-04-28T03:10:57;97663.97;;;10.69;66.67
19884;BME280;10104;50.732;10.174;2023-04-28T03:13:18;97660.13;;;10.72;66.42
19884;BME280;10104;50.732;10.174;2023-04-28T03:15:40;97665.41;;;10.72;67.23
19884;BME280;10104;50.732;10.174;2023-04-28T03:18:01;97656.97;;;10.55;68.01
19884;BME280;10104;50.732;10.174;2023-04-28T03:20:23;97655.59;;;10.66;66.79
19884;BME280;10104;50.732;10.174;2023-04-28T03:22:45;97655.19;;;10.69;66.14
19884;BME280;10104;50.732;10.174;2023-04-28T03:25:06;97653.19;;;10.71;65.78
19884;BME280;10104;50.732;10.174;2023-04-28T03:27:28;97654.03;;;10.78;65.15
19884;BME280;10104;50.732;10.174;2023-04-28T03:29:49;97646.91;;;10.78;64.84
19884;BME280;10104;50.732;10.174;2023-04-28T03:32:11;97653.81;;;10.73;65.92
19884;BME280;10104;50.732;10.174;2023-04-28T03:34:33;97641.59;;;10.72;68.78
19884;BME280;10104;50.732;10.174;2023-04-28T03:36:54;97643.03;;;10.81;67.72
19884;BME280;10104;50.732;10.174;2023-04-28T03:39:16;97640.66;;;10.86;67.12
19884;BME280;10104;50.732;10.174;2023-04-28T03:41:37;97642.47;;;10.85;67.36
19884;BME280;10104;50.732;10.174;2023-04-28T03:43:59;97639.22;;;10.90;67.02
19884;BME280;10104;50.732;10.174;2023-04-28T03:46:20;97637.22;;;10.92;66.76
19884;BME280;10104;50.732;10.174;2023-04-28T03:48:42;97630.31;;;10.98;66.45
19884;BME280;10104;50.732;10.174;2023-04-28T03:51:04;97632.16;;;10.97;67.26
19884;BME280;10104;50.732;10.174;2023-04-28T03:53:25;97626.81;;;10.90;68.68
19884;BME280;10104;50.732;10.174;2023-04-28T03:55:47;97631.09;;;10.91;68.51
19884;BME280;10104;50.732;10.174;2023-04-28T03:58:08;97629.28;;;10.92;69.49
19884;BME280;10104;50.732;10.174;2023-04-28T04:00:30;97631.63;;;10.80;73.19
19884;BME280;10104;50.732;10.174;2023-04-28T04:02:52;97643.13;;;10.94;72.02
19884;BME280;10104;50.732;10.174;2023-04-28T04:05:14;97630.88;;;10.93;70.91
19884;BME280;10104;50.732;10.174;2023-04-28T04:07:35;97629.28;;;10.92;70.36
19884;BME280;10104;50.732;10.174;2023-04-28T04:09:57;97622.34;;;10.91;70.21
19884;BME280;10104;50.732;10.174;2023-04-28T04:12:18;97623.03;;;10.72;73.96
19884;BME280;10104;50.732;10.174;2023-04-28T04:14:40;97624.78;;;10.58;75.43
19884;BME280;10104;50.732;10.174;2023-04-28T04:17:01;97628.34;;;10.72;73.03
19884;BME280;10104;50.732;10.174;2023-04-28T04:19:23;97616.25;;;10.63;75.43
19884;BME280;10104;50.732;10.174;2023-04-28T04:21:46;97620.34;;;10.65;74.53
19884;BME280;10104;50.732;10.174;2023-04-28T04:24:08;97621.44;;;10.77;73.02
19884;BME280;10104;50.732;10.174;2023-04-28T04:26:29;97619.22;;;10.81;72.21
19884;BME280;10104;50.732;10.174;2023-04-28T04:28:51;97626.16;;;10.82;72.79
19884;BME280;10104;50.732;10.174;2023-04-28T04:31:12;97617.19;;;10.83;72.03
19884;BME280;10104;50.732;10.174;2023-04-28T04:33:35;97621.50;;;10.90;71.28
19884;BME280;10104;50.732;10.174;2023-04-28T04:35:57;97614.78;;;10.94;70.93
19884;BME280;10104;50.732;10.174;2023-04-28T04:38:19;97620.47;;;10.85;73.25
19884;BME280;10104;50.732;10.174;2023-04-28T04:40:40;97617.59;;;10.86;72.34
19884;BME280;10104;50.732;10.174;2023-04-28T04:43:02;97606.16;;;10.73;72.81
19884;BME280;10104;50.732;10.174;2023-04-28T04:45:24;97616.41;;;10.89;71.74
19884;BME280;10104;50.732;10.174;2023-04-28T04:47:45;97621.53;;;10.97;70.94
19884;BME280;10104;50.732;10.174;2023-04-28T04:50:07;97617.91;;;11.05;70.85
19884;BME280;10104;50.732;10.174;2023-04-28T04:52:29;97630.78;;;11.14;70.51
19884;BME280;10104;50.732;10.174;2023-04-28T04:54:50;97617.34;;;11.16;70.29
19884;BME280;10104;50.732;10.174;2023-04-28T04:57:12;97611.44;;;11.20;69.71
19884;BME280;10104;50.732;10.174;2023-04-28T04:59:34;97604.09;;;11.16;71.04
19884;BME280;10104;50.732;10.174;2023-04-28T05:01:55;97606.91;;;11.08;70.37
19884;BME280;10104;50.732;10.174;2023-04-28T05:04:17;97610.16;;;11.03;70.03
19884;BME280;10104;50.732;10.174;2023-04-28T05:06:39;97614.06;;;11.14;69.90
19884;BME280;10104;50.732;10.174;2023-04-28T05:09:00;97605.97;;;11.28;68.70
19884;BME280;10104;50.732;10.174;2023-04-28T05:11:22;97608.22;;;11.31;67.86
19884;BME280;10104;50.732;10.174;2023-04-28T05:13:44;97612.31;;;11.34;67.39
19884;BME280;10104;50.732;10.174;2023-04-28T05:16:05;97612.31;;;11.34;67.46
19884;BME280;10104;50.732;10.174;2023-04-28T05:18:27;97614.34;;;11.39;67.26
19884;BME280;10104;50.732;10.174;2023-04-28T05:20:49;97613.09;;;11.28;67.79
19884;BME280;10104;50.732;10.174;2023-04-28T05:23:11;97610.44;;;11.28;68.11
19884;BME280;10104;50.732;10.174;2023-04-28T05:25:32;97614.13;;;11.33;68.15
19884;BME280;10104;50.732;10.174;2023-04-28T05:27:56;97603.53;;;11.33;68.82
19884;BME280;10104;50.732;10.174;2023-04-28T05:30:17;97607.59;;;11.36;69.47
19884;BME280;10104;50.732;10.174;2023-04-28T05:32:39;97612.31;;;11.41;71.16
19884;BME280;10104;50.732;10.174;2023-04-28T05:35:00;97608.66;;;11.48;71.41
19884;BME280;10104;50.732;10.174;2023-04-28T05:37:22;97599.28;;;11.52;73.16
19884;BME280;10104;50.732;10.174;2023-04-28T05:39:43;97605.41;;;11.53;72.38
19884;BME280;10104;50.732;10.174;2023-04-28T05:42:05;97604.97;;;11.49;73.44
19884;BME280;10104;50.732;10.174;2023-04-28T05:44:26;97608.66;;;11.55;73.43
19884;BME280;10104;50.732;10.174;2023-04-28T05:46:48;97612.22;;;11.75;71.59
19884;BME280;10104;50.732;10.174;2023-04-28T05:49:09;97608.28;;;11.58;73.75
19884;BME280;10104;50.732;10.174;2023-04-28T05:51:31;97610.53;;;11.67;72.55
19884;BME280;10104;50.732;10.174;2023-04-28T05:53:54;97613.41;;;11.66;73.93
19884;BME280;10104;50.732;10.174;2023-04-28T05:56:15;97613.16;;;11.41;75.99
19884;BME280;10104;50.732;10.174;2023-04-28T05:58:37;97603.53;;;11.33;78.67
19884;BME280;10104;50.732;10.174;2023-04-28T06:00:59;97596.22;;;11.35;79.39
19884;BME280;10104;50.732;10.174;2023-04-28T06:03:20;97594.16;;;11.38;80.77
19884;BME280;10104;50.732;10.174;2023-04-28T06:05:42;97590.91;;;11.49;80.37
19884;BME280;10104;50.732;10.174;2023-04-28T06:08:04;97589.47;;;11.40;82.54
19884;BME280;10104;50.732;10.174;2023-04-28T06:10:26;97586.25;;;11.57;80.52
19884;BME280;10104;50.732;10.174;2023-04-28T06:12:47;97591.56;;;11.57;82.00
19884;BME280;10104;50.732;10.174;2023-04-28T06:15:09;97575.59;;;11.38;83.66
19884;BME280;10104;50.732;10.174;2023-04-28T06:17:31;97579.69;;;11.40;82.86
19884;BME280;10104;50.732;10.174;2023-04-28T06:19:53;97583.97;;;11.41;82.21
19884;BME280;10104;50.732;10.174;2023-04-28T06:22:16;97592.16;;;11.53;80.65
19884;BME280;10104;50.732;10.174;2023-04-28T06:24:37;97593.38;;;11.57;81.02
19884;BME280;10104;50.732;10.174;2023-04-28T06:26:58;97594.75;;;11.26;83.88
19884;BME280;10104;50.732;10.174;2023-04-28T06:29:20;97594.41;;;11.56;80.92
19884;BME280;10104;50.732;10.174;2023-04-28T06:31:44;97599.09;;;11.47;83.01
19884;BME280;10104;50.732;10.174;2023-04-28T06:34:05;97590.94;;;11.62;82.59
19884;BME280;10104;50.732;10.174;2023-04-28T06:36:27;97594.66;;;11.81;81.25
19884;BME280;10104;50.732;10.174;2023-04-28T06:38:49;97594.84;;;11.66;81.59
19884;BME280;10104;50.732;10.174;2023-04-28T06:41:10;97593.41;;;11.70;79.96
19884;BME280;10104;50.732;10.174;2023-04-28T06:43:32;97589.09;;;11.56;84.87
19884;BME280;10104;50.732;10.174;2023-04-28T06:45:53;97590.16;;;11.74;82.64
19884;BME280;10104;50.732;10.174;2023-04-28T06:48:15;97581.81;;;12.04;80.71
19884;BME280;10104;50.732;10.174;2023-04-28T06:50:37;97577.91;;;12.26;78.85
19884;BME280;10104;50.732;10.174;2023-04-28T06:52:58;97579.31;;;12.48;77.87
19884;BME280;10104;50.732;10.174;2023-04-28T06:55:20;97579.88;;;12.70;76.27
19884;BME280;10104;50.732;10.174;2023-04-28T06:57:41;97580.69;;;12.77;76.08
19884;BME280;10104;50.732;10.174;2023-04-28T07:00:04;97579.75;;;12.96;75.48
19884;BME280;10104;50.732;10.174;2023-04-28T07:02:25;97570.06;;;12.77;79.41
19884;BME280;10104;50.732;10.174;2023-04-28T07:04:47;97578.22;;;12.76;78.78
19884;BME280;10104;50.732;10.174;2023-04-28T07:07:10;97573.34;;;12.60;78.39
19884;BME280;10104;50.732;10.174;2023-04-28T07:09:31;97571.13;;;12.50;78.00
19884;BME280;10104;50.732;10.174;2023-04-28T07:11:53;97579.09;;;12.56;80.32
19884;BME280;10104;50.732;10.174;2023-04-28T07:14:15;97580.31;;;12.54;79.86
19884;BME280;10104;50.732;10.174;2023-04-28T07:16:38;97582.31;;;12.72;79.27
19884;BME280;10104;50.732;10.174;2023-04-28T07:18:59;97579.56;;;12.98;77.65
19884;BME280;10104;50.732;10.174;2023-04-28T07:21:21;97582.41;;;13.03;77.14
19884;BME280;10104;50.732;10.174;2023-04-28T07:23:42;97582.06;;;12.86;78.05
19884;BME280;10104;50.732;10.174;2023-04-28T07:26:04;97580.34;;;13.05;77.19
19884;BME280;10104;50.732;10.174;2023-04-28T07:28:26;97582.16;;;13.11;78.36
19884;BME280;10104;50.732;10.174;2023-04-28T07:30:48;97585.19;;;13.21;77.72
19884;BME280;10104;50.732;10.174;2023-04-28T07:33:09;97580.50;;;13.23;76.66
19884;BME280;10104;50.732;10.174;2023-04-28T07:35:31;97581.44;;;13.35;75.79
19884;BME280;10104;50.732;10.174;2023-04-28T07:37:53;97582.19;;;13.49;75.07
19884;BME280;10104;50.732;10.174;2023-04-28T07:40:15;97585.84;;;13.55;75.27
19884;BME280;10104;50.732;10.174;2023-04-28T07:42:37;97582.28;;;13.67;74.37
19884;BME280;10104;50.732;10.174;2023-04-28T07:44:58;97589.06;;;13.63;73.07
19884;BME280;10104;50.732;10.174;2023-04-28T07:47:20;97591.38;;;13.53;73.64
19884;BME280;10104;50.732;10.174;2023-04-28T07:49:41;97586.38;;;13.70;72.23
19884;BME280;10104;50.732;10.174;2023-04-28T07:52:03;97592.06;;;13.73;71.92
19884;BME280;10104;50.732;10.174;2023-04-28T07:54:24;97585.06;;;13.79;71.53
19884;BME280;10104;50.732;10.174;2023-04-28T07:56:46;97579.25;;;13.89;70.77
19884;BME280;10104;50.732;10.174;2023-04-28T07:59:07;97589.69;;;13.90;71.18
19884;BME280;10104;50.732;10.174;2023-04-28T08:01:29;97584.91;;;13.99;71.34
19884;BME280;10104;50.732;10.174;2023-04-28T08:03:51;97576.47;;;14.02;70.67
19884;BME280;10104;50.732;10.174;2023-04-28T08:06:13;97562.19;;;13.96;70.92
19884;BME280;10104;50.732;10.174;2023-04-28T08:08:35;97548.84;;;14.03;70.45
19884;BME280;10104;50.732;10.174;2023-04-28T08:10:56;97548.00;;;14.02;70.29
19884;BME280;10104;50.732;10.174;2023-04-28T08:13:18;97533.63;;;14.10;71.12
19884;BME280;10104;50.732;10.174;2023-04-28T08:15:40;97531.41;;;14.07;71.36
19884;BME280;10104;50.732;10.174;2023-04-28T08:18:02;97535.72;;;14.01;71.70
19884;BME280;10104;50.732;10.174;2023-04-28T08:20:23;97539.59;;;13.56;75.22
19884;BME280;10104;50.732;10.174;2023-04-28T08:22:45;97538.63;;;14.00;73.71
19884;BME280;10104;50.732;10.174;2023-04-28T08:25:07;97539.78;;;13.86;73.16
19884;BME280;10104;50.732;10.174;2023-04-28T08:27:29;97534.94;;;14.01;73.21
19884;BME280;10104;50.732;10.174;2023-04-28T08:29:51;97551.13;;;13.74;74.51
19884;BME280;10104;50.732;10.174;2023-04-28T08:32:13;97550.09;;;13.13;75.54
19884;BME280;10104;50.732;10.174;2023-04-28T08:34:34;97555.88;;;13.34;74.79
19884;BME280;10104;50.732;10.174;2023-04-28T08:36:56;97561.00;;;13.67;73.41
19884;BME280;10104;50.732;10.174;2023-04-28T08:39:17;97568.78;;;13.69;74.30
19884;BME280;10104;50.732;10.174;2023-04-28T08:41:40;97551.78;;;13.95;73.24
19884;BME280;10104;50.732;10.174;2023-04-28T08:44:07;97546.56;;;14.06;73.27
19884;BME280;10104;50.732;10.174;2023-04-28T08:46:28;97549.84;;;14.27;72.61
19884;BME280;10104;50.732;10.174;2023-04-28T08:48:57;97534.81;;;14.32;73.87
19884;BME280;10104;50.732;10.174;2023-04-28T08:51:33;97528.00;;;14.43;73.59
19884;BME280;10104;50.732;10.174;2023-04-28T08:54:01;97528.16;;;14.66;72.70
19884;BME280;10104;50.732;10.174;2023-04-28T08:56:45;97528.13;;;14.84;72.31
19884;BME280;10104;50.732;10.174;2023-04-28T08:59:07;97537.38;;;14.82;73.27
19884;BME280;10104;50.732;10.174;2023-04-28T09:01:28;97536.25;;;15.08;71.85
19884;BME280;10104;50.732;10.174;2023-04-28T09:03:52;97525.53;;;14.96;72.06
19884;BME280;10104;50.732;10.174;2023-04-28T09:06:14;97526.69;;;15.00;72.63
19884;BME280;10104;50.732;10.174;2023-04-28T09:08:36;97531.44;;;14.98;71.57
19884;BME280;10104;50.732;10.174;2023-04-28T09:11:08;97531.50;;;15.10;72.28
19884;BME280;10104;50.732;10.174;2023-04-28T09:13:29;97529.69;;;15.22;71.24
19884;BME280;10104;50.732;10.174;2023-04-28T09:15:58;97532.72;;;15.25;71.23
19884;BME280;10104;50.732;10.174;2023-04-28T09:18:20;97530.72;;;15.21;71.85
19884;BME280;10104;50.732;10.174;2023-04-28T09:20:43;97533.78;;;15.24;72.07
19884;BME280;10104;50.732;10.174;2023-04-28T09:23:19;97532.13;;;14.93;73.41
19884;BME280;10104;50.732;10.174;2023-04-28T09:25:55;97524.28;;;14.98;73.60
19884;BME280;10104;50.732;10.174;2023-04-28T09:28:20;97515.00;;;15.01;73.19
19884;BME280;10104;50.732;10.174;2023-04-28T09:30:42;97508.53;;;15.09;73.74
19884;BME280;10104;50.732;10.174;2023-04-28T09:33:04;97513.41;;;15.42;72.14
19884;BME280;10104;50.732;10.174;2023-04-28T09:35:38;97512.66;;;15.23;74.16
19884;BME280;10104;50.732;10.174;2023-04-28T09:38:00;97515.38;;;15.05;75.50
19884;BME280;10104;50.732;10.174;2023-04-28T09:40:21;97519.69;;;15.47;72.79
19884;BME280;10104;50.732;10.174;2023-04-28T09:42:43;97520.50;;;15.48;73.19
19884;BME280;10104;50.732;10.174;2023-04-28T09:45:08;97524.19;;;15.35;72.51
19884;BME280;10104;50.732;10.174;2023-04-28T09:47:31;97522.69;;;15.39;71.95
19884;BME280;10104;50.732;10.174;2023-04-28T09:49:56;97523.25;;;15.29;72.92
19884;BME280;10104;50.732;10.174;2023-04-28T09:52:18;97512.94;;;15.45;71.74
19884;BME280;10104;50.732;10.174;2023-04-28T09:54:39;97512.34;;;15.61;70.72
19884;BME280;10104;50.732;10.174;2023-04-28T09:57:02;97512.91;;;15.74;69.91
19884;BME280;10104;50.732;10.174;2023-04-28T09:59:26;97500.84;;;15.60;70.85
19884;BME280;10104;50.732;10.174;2023-04-28T10:01:48;97506.53;;;15.75;70.81
19884;BME280;10104;50.732;10.174;2023-04-28T10:04:10;97503.53;;;15.95;69.75
19884;BME280;10104;50.732;10.174;2023-04-28T10:06:34;97499.59;;;15.98;69.59
19884;BME280;10104;50.732;10.174;2023-04-28T10:08:57;97506.00;;;15.97;69.78
19884;BME280;10104;50.732;10.174;2023-04-28T10:11:21;97511.09;;;15.98;69.91
19884;BME280;10104;50.732;10.174;2023-04-28T10:13:43;97509.69;;;16.19;69.12
19884;BME280;10104;50.732;10.174;2023-04-28T10:16:05;97509.00;;;16.35;67.79
19884;BME280;10104;50.732;10.174;2023-04-28T10:18:29;97510.50;;;16.31;67.71
19884;BME280;10104;50.732;10.174;2023-04-28T10:20:59;97503.28;;;16.43;66.77
19884;BME280;10104;50.732;10.174;2023-04-28T10:25:55;97500.72;;;16.48;67.85
19884;BME280;10104;50.732;10.174;2023-04-28T10:28:17;97501.53;;;16.61;67.89
19884;BME280;10104;50.732;10.174;2023-04-28T10:30:40;97485.84;;;16.64;67.87
19884;BME280;10104;50.732;10.174;2023-04-28T10:33:22;97485.59;;;16.77;67.44
19884;BME280;10104;50.732;10.174;2023-04-28T10:35:45;97485.81;;;17.04;66.28
19884;BME280;10104;50.732;10.174;2023-04-28T10:40:43;97493.13;;;17.54;64.44
19884;BME280;10104;50.732;10.174;2023-04-28T10:43:09;97488.50;;;17.49;64.40
19884;BME280;10104;50.732;10.174;2023-04-28T10:48:19;97483.22;;;17.37;63.95
19884;BME280;10104;50.732;10.174;2023-04-28T10:56:05;97464.81;;;17.41;65.57
19884;BME280;10104;50.732;10.174;2023-04-28T11:00:48;97457.03;;;17.56;66.43
19884;BME280;10104;50.732;10.174;2023-04-28T11:03:56;97459.72;;;18.06;64.65
19884;BME280;10104;50.732;10.174;2023-04-28T11:06:25;97455.09;;;17.85;65.01
19884;BME280;10104;50.732;10.174;2023-04-28T11:08:47;97442.81;;;18.44;62.72
19884;BME280;10104;50.732;10.174;2023-04-28T11:13:30;97441.91;;;19.04;61.54
19884;BME280;10104;50.732;10.174;2023-04-28T11:16:04;97453.63;;;19.84;61.44
19884;BME280;10104;50.732;10.174;2023-04-28T11:18:27;97458.75;;;19.85;59.92
19884;BME280;10104;50.732;10.174;2023-04-28T11:20:52;97458.44;;;19.82;59.41
19884;BME280;10104;50.732;10.174;2023-04-28T11:23:17;97443.94;;;20.25;57.78
19884;BME280;10104;50.732;10.174;2023-04-28T11:25:53;97440.59;;;21.22;56.28
19884;BME280;10104;50.732;10.174;2023-04-28T11:28:14;97432.25;;;21.44;54.69
19884;BME280;10104;50.732;10.174;2023-04-28T11:30:37;97428.47;;;21.90;52.07
19884;BME280;10104;50.732;10.174;2023-04-28T11:32:59;97434.94;;;22.09;51.75
19884;BME280;10104;50.732;10.174;2023-04-28T11:35:21;97438.97;;;22.17;51.44
19884;BME280;10104;50.732;10.174;2023-04-28T11:37:42;97421.72;;;21.93;52.21
19884;BME280;10104;50.732;10.174;2023-04-28T11:40:11;97427.63;;;22.25;50.89
19884;BME280;10104;50.732;10.174;2023-04-28T11:42:33;97426.53;;;22.26;51.56
19884;BME280;10104;50.732;10.174;2023-04-28T11:44:54;97431.47;;;21.78;51.08
19884;BME280;10104;50.732;10.174;2023-04-28T11:47:29;97438.44;;;21.49;52.02
19884;BME280;10104;50.732;10.174;2023-04-28T11:49:51;97432.25;;;21.33;52.82
19884;BME280;10104;50.732;10.174;2023-04-28T11:52:13;97425.16;;;20.97;53.90
19884;BME280;10104;50.732;10.174;2023-04-28T11:54:35;97430.00;;;20.95;53.40
19884;BME280;10104;50.732;10.174;2023-04-28T11:56:58;97428.06;;;20.75;54.84
19884;BME280;10104;50.732;10.174;2023-04-28T11:59:25;97427.00;;;20.86;54.91
19884;BME280;10104;50.732;10.174;2023-04-28T12:01:55;97431.34;;;20.30;55.65
19884;BME280;10104;50.732;10.174;2023-04-28T12:07:09;97421.91;;;19.81;57.52
19884;BME280;10104;50.732;10.174;2023-04-28T12:09:32;97420.31;;;19.85;57.74
19884;BME280;10104;50.732;10.174;2023-04-28T12:11:57;97421.06;;;19.75;57.75
19884;BME280;10104;50.732;10.174;2023-04-28T12:14:19;97416.78;;;19.74;57.58
19884;BME280;10104;50.732;10.174;2023-04-28T12:16:42;97424.03;;;19.78;57.07
19884;BME280;10104;50.732;10.174;2023-04-28T12:19:05;97424.63;;;19.86;57.07
19884;BME280;10104;50.732;10.174;2023-04-28T12:21:30;97428.13;;;19.49;58.75
19884;BME280;10104;50.732;10.174;2023-04-28T12:23:51;97430.25;;;19.47;58.99
19884;BME280;10104;50.732;10.174;2023-04-28T12:26:13;97426.53;;;19.53;58.71
19884;BME280;10104;50.732;10.174;2023-04-28T12:28:38;97428.94;;;19.50;58.80
19884;BME280;10104;50.732;10.174;2023-04-28T12:31:04;97428.56;;;19.41;59.68
19884;BME280;10104;50.732;10.174;2023-04-28T12:33:26;97418.47;;;19.53;58.75
19884;BME280;10104;50.732;10.174;2023-04-28T12:35:50;97429.38;;;19.15;60.02
19884;BME280;10104;50.732;10.174;2023-04-28T12:38:11;97420.28;;;19.16;60.34
19884;BME280;10104;50.732;10.174;2023-04-28T12:40:34;97425.06;;;19.14;60.96
19884;BME280;10104;50.732;10.174;2023-04-28T12:42:55;97415.59;;;19.33;61.01
19884;BME280;10104;50.732;10.174;2023-04-28T12:45:17;97413.13;;;19.26;61.21
19884;BME280;10104;50.732;10.174;2023-04-28T12:47:38;97409.69;;;19.31;61.90